createdAt,value
2023-01-06T00:00:05.351Z,50.885681
2023-01-06T00:01:04.375Z,50.885567
2023-01-06T00:02:04.408Z,50.885574
2023-01-06T00:03:04.325Z,50.885567
2023-01-06T00:04:04.339Z,50.885796
2023-01-06T00:05:04.286Z,50.885715
2023-01-06T00:06:04.303Z,50.885601
2023-01-06T00:07:04.323Z,50.885521
2023-01-06T00:08:04.327Z,50.885498
2023-01-06T00:09:04.346Z,50.885628
2023-01-06T00:10:04.306Z,50.885551
2023-01-06T00:11:04.338Z,50.885601
2023-01-06T00:12:04.380Z,50.885509
2023-01-06T00:13:04.224Z,50.885532
2023-01-06T00:14:04.282Z,50.885662
2023-01-06T00:15:04.285Z,50.885681
2023-01-06T00:16:04.306Z,50.885582
2023-01-06T00:17:04.281Z,50.885479
2023-01-06T00:18:04.296Z,50.885601
2023-01-06T00:19:04.262Z,50.885601
2023-01-06T00:20:04.277Z,50.885551
2023-01-06T00:21:04.233Z,50.885567
2023-01-06T00:22:04.222Z,50.885609
2023-01-06T00:23:04.245Z,50.885548
2023-01-06T00:24:04.192Z,50.885582
2023-01-06T00:25:04.189Z,50.885521
2023-01-06T00:26:04.184Z,50.885662
2023-01-06T00:27:04.260Z,50.885609
2023-01-06T00:28:04.212Z,50.885582
2023-01-06T00:29:04.174Z,50.885498
2023-01-06T00:30:04.139Z,50.885448
2023-01-06T00:31:04.233Z,50.885509
2023-01-06T00:32:04.190Z,50.885502
2023-01-06T00:33:04.135Z,50.885494
2023-01-06T00:34:04.280Z,50.885483
2023-01-06T00:35:04.121Z,50.885563
2023-01-06T00:36:04.118Z,50.885639
2023-01-06T00:37:04.159Z,50.885498
2023-01-06T00:38:04.087Z,50.885521
2023-01-06T00:39:04.087Z,50.885414
2023-01-06T00:40:04.141Z,50.885471
2023-01-06T00:41:04.115Z,50.885532
2023-01-06T00:42:04.135Z,50.885502
2023-01-06T00:43:04.170Z,50.885456
2023-01-06T00:44:04.060Z,50.885525
2023-01-06T00:45:04.284Z,50.885548
2023-01-06T00:46:04.153Z,50.885601
2023-01-06T00:47:04.025Z,50.885487
2023-01-06T00:48:04.080Z,50.885429
2023-01-06T00:49:05.600Z,50.885643
2023-01-06T00:50:05.082Z,50.885578
2023-01-06T00:51:04.067Z,50.885517
2023-01-06T00:52:04.040Z,50.885502
2023-01-06T00:53:04.016Z,50.885464
2023-01-06T00:54:03.996Z,50.885548
2023-01-06T00:55:04.012Z,50.885452
2023-01-06T00:56:04.123Z,50.885559
2023-01-06T00:57:04.013Z,50.885483
2023-01-06T00:58:03.973Z,50.885525
2023-01-06T00:59:04.083Z,50.885498
2023-01-06T01:00:03.964Z,50.885567
2023-01-06T01:01:04.343Z,50.885502
2023-01-06T01:02:04.076Z,50.885387
2023-01-06T01:03:04.027Z,50.885460
2023-01-06T01:04:03.936Z,50.885567
2023-01-06T01:05:03.921Z,50.885548
2023-01-06T01:06:03.922Z,50.885693
2023-01-06T01:07:03.948Z,50.885586
2023-01-06T01:08:03.900Z,50.885471
2023-01-06T01:09:03.917Z,50.885445
2023-01-06T01:10:03.886Z,50.885654
2023-01-06T01:11:04.193Z,50.885502
2023-01-06T01:12:03.922Z,50.885620
2023-01-06T01:13:03.889Z,50.885517
2023-01-06T01:14:03.887Z,50.885593
2023-01-06T01:15:03.984Z,50.885540
2023-01-06T01:16:03.948Z,50.885563
2023-01-06T01:17:03.851Z,50.885395
2023-01-06T01:18:03.901Z,50.885536
2023-01-06T01:19:03.853Z,50.885475
2023-01-06T01:20:03.874Z,50.885513
2023-01-06T01:21:03.809Z,50.885567
2023-01-06T01:22:03.875Z,50.885502
2023-01-06T01:23:03.828Z,50.885391
2023-01-06T01:24:03.808Z,50.885433
2023-01-06T01:25:03.814Z,50.885502
2023-01-06T01:26:03.785Z,50.885563
2023-01-06T01:27:03.841Z,50.885506
2023-01-06T01:28:03.803Z,50.885578
2023-01-06T01:29:03.848Z,50.885468
2023-01-06T01:30:03.800Z,50.885632
2023-01-06T01:31:03.932Z,50.885544
2023-01-06T01:32:03.765Z,50.885506
2023-01-06T01:33:03.776Z,50.885597
2023-01-06T01:34:03.838Z,50.885475
2023-01-06T01:35:04.767Z,50.885590
2023-01-06T01:36:03.764Z,50.885662
2023-01-06T01:37:03.765Z,50.885540
2023-01-06T01:38:03.775Z,50.885498
2023-01-06T01:39:03.757Z,50.885490
2023-01-06T01:40:03.838Z,50.885448
2023-01-06T01:41:03.719Z,50.885445
2023-01-06T01:42:03.750Z,50.885380
2023-01-06T01:43:03.702Z,50.885460
2023-01-06T01:44:03.675Z,50.885525
2023-01-06T01:45:03.839Z,50.885555
2023-01-06T01:46:03.737Z,50.885464
2023-01-06T01:47:03.776Z,50.885483
2023-01-06T01:48:03.709Z,50.885418
2023-01-06T01:49:03.666Z,50.885395
2023-01-06T01:50:03.670Z,50.885414
2023-01-06T01:51:03.692Z,50.885593
2023-01-06T01:52:03.651Z,50.885525
2023-01-06T01:53:03.652Z,50.885551
2023-01-06T01:54:03.645Z,50.885498
2023-01-06T01:55:03.678Z,50.885426
2023-01-06T01:56:03.683Z,50.885475
2023-01-06T01:57:03.672Z,50.885494
2023-01-06T01:58:03.638Z,50.885452
2023-01-06T01:59:03.632Z,50.885506
2023-01-06T02:00:03.619Z,50.885509
2023-01-06T02:01:03.590Z,50.885540
2023-01-06T02:02:03.710Z,50.885559
2023-01-06T02:03:03.691Z,50.885483
2023-01-06T02:04:03.579Z,50.885593
2023-01-06T02:05:03.596Z,50.885609
2023-01-06T02:06:03.557Z,50.885597
2023-01-06T02:07:03.648Z,50.885464
2023-01-06T02:08:03.548Z,50.885506
2023-01-06T02:09:03.609Z,50.885647
2023-01-06T02:10:03.569Z,50.885658
2023-01-06T02:11:03.541Z,50.885590
2023-01-06T02:12:03.550Z,50.885532
2023-01-06T02:13:03.564Z,50.885471
2023-01-06T02:14:03.535Z,50.885509
2023-01-06T02:15:03.524Z,50.885460
2023-01-06T02:16:03.562Z,50.885555
2023-01-06T02:17:03.553Z,50.885590
2023-01-06T02:18:03.573Z,50.885555
2023-01-06T02:19:03.594Z,50.885647
2023-01-06T02:20:03.525Z,50.885521
2023-01-06T02:21:03.528Z,50.885380
2023-01-06T02:22:03.456Z,50.885502
2023-01-06T02:23:03.498Z,50.885532
2023-01-06T02:24:03.601Z,50.885567
2023-01-06T02:25:03.461Z,50.885624
2023-01-06T02:26:03.482Z,50.885525
2023-01-06T02:27:03.467Z,50.885544
2023-01-06T02:28:03.458Z,50.885551
2023-01-06T02:29:03.610Z,50.885609
2023-01-06T02:30:03.458Z,50.885563
2023-01-06T02:31:03.493Z,50.885494
2023-01-06T02:32:03.431Z,50.885517
2023-01-06T02:33:03.406Z,50.885406
2023-01-06T02:34:03.432Z,50.885387
2023-01-06T02:35:03.525Z,50.885487
2023-01-06T02:36:03.491Z,50.885529
2023-01-06T02:37:03.426Z,50.885620
2023-01-06T02:38:03.387Z,50.885674
2023-01-06T02:39:03.454Z,50.885525
2023-01-06T02:40:03.491Z,50.885517
2023-01-06T02:41:03.370Z,50.885502
2023-01-06T02:42:03.354Z,50.885647
2023-01-06T02:43:03.378Z,50.885521
2023-01-06T02:44:03.342Z,50.885578
2023-01-06T02:45:03.365Z,50.885605
2023-01-06T02:46:03.435Z,50.885384
2023-01-06T02:47:03.351Z,50.885338
2023-01-06T02:48:03.345Z,50.885418
2023-01-06T02:49:03.340Z,50.885521
2023-01-06T02:50:03.320Z,50.885536
2023-01-06T02:51:03.430Z,50.885536
2023-01-06T02:52:03.301Z,50.885548
2023-01-06T02:53:03.272Z,50.885521
2023-01-06T02:54:03.308Z,50.885551
2023-01-06T02:55:03.331Z,50.885574
2023-01-06T02:56:03.320Z,50.885609
2023-01-06T02:57:03.322Z,50.885540
2023-01-06T02:58:03.330Z,50.885536
2023-01-06T02:59:03.279Z,50.885536
2023-01-06T03:00:03.297Z,50.885563
2023-01-06T03:01:03.245Z,50.885628
2023-01-06T03:02:03.520Z,50.885265
2023-01-06T03:03:03.276Z,50.885426
2023-01-06T03:04:03.264Z,50.885529
2023-01-06T03:05:03.278Z,50.885456
2023-01-06T03:06:03.262Z,50.885628
2023-01-06T03:07:03.330Z,50.885681
2023-01-06T03:08:03.333Z,50.885666
2023-01-06T03:09:03.202Z,50.885498
2023-01-06T03:10:03.192Z,50.885540
2023-01-06T03:11:03.256Z,50.885586
2023-01-06T03:12:03.198Z,50.885540
2023-01-06T03:13:03.224Z,50.885582
2023-01-06T03:14:03.152Z,50.885548
2023-01-06T03:15:03.222Z,50.885506
2023-01-06T03:16:03.226Z,50.885567
2023-01-06T03:17:03.153Z,50.885612
2023-01-06T03:18:03.127Z,50.885544
2023-01-06T03:19:03.172Z,50.885628
2023-01-06T03:20:03.159Z,50.885597
2023-01-06T03:21:03.183Z,50.885582
2023-01-06T03:22:03.127Z,50.885597
2023-01-06T03:23:03.220Z,50.885494
2023-01-06T03:24:03.138Z,50.885582
2023-01-06T03:25:03.114Z,50.885551
2023-01-06T03:26:03.088Z,50.885551
2023-01-06T03:27:03.130Z,50.885593
2023-01-06T03:28:03.134Z,50.885544
2023-01-06T03:29:03.153Z,50.885643
2023-01-06T03:30:03.188Z,50.885616
2023-01-06T03:31:03.130Z,50.885628
2023-01-06T03:32:03.129Z,50.885593
2023-01-06T03:33:03.099Z,50.885551
2023-01-06T03:34:03.076Z,50.885609
2023-01-06T03:35:03.159Z,50.885597
2023-01-06T03:36:03.046Z,50.885635
2023-01-06T03:37:03.096Z,50.885563
2023-01-06T03:38:03.054Z,50.885563
2023-01-06T03:39:03.150Z,50.885452
2023-01-06T03:40:03.042Z,50.885479
2023-01-06T03:41:03.134Z,50.885597
2023-01-06T03:42:03.038Z,50.885555
2023-01-06T03:43:03.018Z,50.885525
2023-01-06T03:44:03.057Z,50.885578
2023-01-06T03:45:03.003Z,50.885601
2023-01-06T03:46:03.040Z,50.885582
2023-01-06T03:47:02.965Z,50.885509
2023-01-06T03:48:03.034Z,50.885468
2023-01-06T03:49:03.010Z,50.885464
2023-01-06T03:50:02.966Z,50.885468
2023-01-06T03:51:03.000Z,50.885521
2023-01-06T03:52:03.075Z,50.885487
2023-01-06T03:53:02.946Z,50.885532
2023-01-06T03:54:02.967Z,50.885593
2023-01-06T03:55:03.014Z,50.885567
2023-01-06T03:56:02.939Z,50.885551
2023-01-06T03:57:02.955Z,50.885544
2023-01-06T03:58:02.894Z,50.885578
2023-01-06T03:59:02.939Z,50.885548
2023-01-06T04:00:02.904Z,50.885590
2023-01-06T04:01:02.939Z,50.885628
2023-01-06T04:02:02.902Z,50.885582
2023-01-06T04:03:02.969Z,50.885559
2023-01-06T04:04:02.960Z,50.885551
2023-01-06T04:05:02.871Z,50.885532
2023-01-06T04:06:02.853Z,50.885525
2023-01-06T04:07:02.868Z,50.885555
2023-01-06T04:08:02.981Z,50.885559
2023-01-06T04:09:02.845Z,50.885517
2023-01-06T04:10:02.874Z,50.885571
2023-01-06T04:11:02.975Z,50.885536
2023-01-06T04:12:02.862Z,50.885586
2023-01-06T04:13:02.854Z,50.885563
2023-01-06T04:14:02.862Z,50.885620
2023-01-06T04:15:02.822Z,50.885632
2023-01-06T04:16:02.888Z,50.885628
2023-01-06T04:17:02.855Z,50.885609
2023-01-06T04:18:02.803Z,50.885574
2023-01-06T04:19:02.872Z,50.885532
2023-01-06T04:20:02.824Z,50.885513
2023-01-06T04:21:02.776Z,50.885487
2023-01-06T04:22:02.820Z,50.885479
2023-01-06T04:23:02.771Z,50.885529
2023-01-06T04:24:02.802Z,50.885525
2023-01-06T04:25:02.923Z,50.885441
2023-01-06T04:26:02.744Z,50.885429
2023-01-06T04:27:02.864Z,50.885597
2023-01-06T04:28:02.739Z,50.885632
2023-01-06T04:29:02.800Z,50.885509
2023-01-06T04:30:02.834Z,50.885418
2023-01-06T04:31:03.763Z,50.885265
2023-01-06T04:32:02.749Z,50.885239
2023-01-06T04:33:02.743Z,50.885422
2023-01-06T04:34:02.709Z,50.885426
2023-01-06T04:35:02.742Z,50.885384
2023-01-06T04:36:02.842Z,50.885395
2023-01-06T04:37:02.672Z,50.885437
2023-01-06T04:38:02.725Z,50.885578
2023-01-06T04:39:02.670Z,50.885532
2023-01-06T04:40:02.679Z,50.885540
2023-01-06T04:41:02.787Z,50.885693
2023-01-06T04:42:02.660Z,50.885574
2023-01-06T04:43:02.761Z,50.885590
2023-01-06T04:44:02.660Z,50.885513
2023-01-06T04:45:02.671Z,50.885609
2023-01-06T04:46:02.674Z,50.885647
2023-01-06T04:47:02.647Z,50.885532
2023-01-06T04:48:02.645Z,50.885437
2023-01-06T04:49:02.584Z,50.885475
2023-01-06T04:50:02.609Z,50.885498
2023-01-06T04:51:02.605Z,50.885475
2023-01-06T04:52:02.657Z,50.885441
2023-01-06T04:53:02.619Z,50.885464
2023-01-06T04:54:02.591Z,50.885593
2023-01-06T04:55:02.577Z,50.885700
2023-01-06T04:56:02.597Z,50.885685
2023-01-06T04:57:02.603Z,50.885696
2023-01-06T04:58:02.606Z,50.885643
2023-01-06T04:59:02.566Z,50.885406
2023-01-06T05:00:02.569Z,50.885578
2023-01-06T05:01:02.605Z,50.885418
2023-01-06T05:02:02.603Z,50.885590
2023-01-06T05:03:02.649Z,50.885532
2023-01-06T05:04:02.559Z,50.885597
2023-01-06T05:05:02.542Z,50.885597
2023-01-06T05:06:02.518Z,50.885662
2023-01-06T05:07:02.556Z,50.885643
2023-01-06T05:08:02.559Z,50.885612
2023-01-06T05:09:02.600Z,50.885536
2023-01-06T05:10:02.493Z,50.885597
2023-01-06T05:11:02.481Z,50.885605
2023-01-06T05:12:02.503Z,50.885609
2023-01-06T05:13:02.491Z,50.885582
2023-01-06T05:14:02.501Z,50.885529
2023-01-06T05:15:02.574Z,50.885479
2023-01-06T05:16:02.488Z,50.885452
2023-01-06T05:17:02.484Z,50.885159
2023-01-06T05:18:02.447Z,50.885033
2023-01-06T05:19:02.448Z,50.884987
2023-01-06T05:20:02.446Z,50.885227
2023-01-06T05:21:02.444Z,50.885414
2023-01-06T05:22:02.464Z,50.885544
2023-01-06T05:23:02.388Z,50.885529
2023-01-06T05:24:02.454Z,50.885166
2023-01-06T05:25:03.465Z,50.885086
2023-01-06T05:26:02.415Z,50.885101
2023-01-06T05:27:02.397Z,50.885239
2023-01-06T05:28:02.401Z,50.885357
2023-01-06T05:29:02.409Z,50.885456
2023-01-06T05:30:02.434Z,50.885674
2023-01-06T05:31:02.458Z,50.885593
2023-01-06T05:32:02.394Z,50.885529
2023-01-06T05:33:02.376Z,50.885357
2023-01-06T05:34:02.354Z,50.885502
2023-01-06T05:35:02.343Z,50.885513
2023-01-06T05:36:02.356Z,50.885571
2023-01-06T05:37:02.362Z,50.885597
2023-01-06T05:38:02.324Z,50.885513
2023-01-06T05:39:02.340Z,50.885548
2023-01-06T05:40:02.338Z,50.885590
2023-01-06T05:41:02.319Z,50.885597
2023-01-06T05:42:02.279Z,50.885513
2023-01-06T05:43:02.327Z,50.885452
2023-01-06T05:44:02.282Z,50.885532
2023-01-06T05:45:02.341Z,50.885601
2023-01-06T05:46:02.380Z,50.885464
2023-01-06T05:47:02.369Z,50.885513
2023-01-06T05:48:02.292Z,50.885529
2023-01-06T05:49:02.283Z,50.885529
2023-01-06T05:50:02.298Z,50.885468
2023-01-06T05:51:02.327Z,50.885559
2023-01-06T05:52:02.270Z,50.885567
2023-01-06T05:53:02.277Z,50.885578
2023-01-06T05:54:02.254Z,50.885601
2023-01-06T05:55:02.249Z,50.885586
2023-01-06T05:56:02.238Z,50.885605
2023-01-06T05:57:02.260Z,50.885624
2023-01-06T05:58:02.232Z,50.885593
2023-01-06T05:59:02.250Z,50.885624
2023-01-06T06:00:02.188Z,50.885639
2023-01-06T06:01:03.134Z,50.885597
2023-01-06T06:02:02.241Z,50.885483
2023-01-06T06:03:02.300Z,50.885536
2023-01-06T06:04:02.244Z,50.885544
2023-01-06T06:05:02.198Z,50.885544
2023-01-06T06:06:02.214Z,50.885563
2023-01-06T06:07:02.140Z,50.885582
2023-01-06T06:08:02.186Z,50.885605
2023-01-06T06:09:02.162Z,50.885563
2023-01-06T06:10:02.202Z,50.885593
2023-01-06T06:11:34.151Z,50.885586
2023-01-06T06:12:02.110Z,50.885586
2023-01-06T06:13:02.132Z,50.885597
2023-01-06T06:14:02.097Z,50.885586
2023-01-06T06:15:02.110Z,50.885548
2023-01-06T06:16:02.129Z,50.885593
2023-01-06T06:17:02.185Z,50.885555
2023-01-06T06:18:02.083Z,50.885464
2023-01-06T06:19:02.198Z,50.885479
2023-01-06T06:20:02.087Z,50.885406
2023-01-06T06:21:02.091Z,50.885517
2023-01-06T06:22:02.057Z,50.885544
2023-01-06T06:23:02.066Z,50.885384
2023-01-06T06:24:02.053Z,50.885479
2023-01-06T06:25:02.051Z,50.885277
2023-01-06T06:26:02.064Z,50.885151
2023-01-06T06:27:02.013Z,50.885109
2023-01-06T06:28:02.118Z,50.885021
2023-01-06T06:29:02.016Z,50.885220
2023-01-06T06:30:01.995Z,50.885406
2023-01-06T06:31:02.022Z,50.885212
2023-01-06T06:32:01.994Z,50.885239
2023-01-06T06:33:02.108Z,50.885319
2023-01-06T06:34:01.999Z,50.885319
2023-01-06T06:35:02.114Z,50.885387
2023-01-06T06:36:02.009Z,50.885338
2023-01-06T06:37:01.982Z,50.885479
2023-01-06T06:38:01.952Z,50.885483
2023-01-06T06:39:02.122Z,50.885502
2023-01-06T06:40:01.979Z,50.885509
2023-01-06T06:41:01.925Z,50.885525
2023-01-06T06:42:01.976Z,50.885490
2023-01-06T06:43:01.947Z,50.885578
2023-01-06T06:44:01.953Z,50.885571
2023-01-06T06:45:01.968Z,50.885483
2023-01-06T06:46:01.997Z,50.885345
2023-01-06T06:47:01.927Z,50.885345
2023-01-06T06:48:01.919Z,50.885445
2023-01-06T06:49:01.955Z,50.885517
2023-01-06T06:50:01.895Z,50.885536
2023-01-06T06:51:01.981Z,50.885468
2023-01-06T06:52:01.889Z,50.885456
2023-01-06T06:53:01.889Z,50.885342
2023-01-06T06:54:01.915Z,50.885262
2023-01-06T06:55:01.974Z,50.885433
2023-01-06T06:56:01.886Z,50.885399
2023-01-06T06:57:01.865Z,50.885368
2023-01-06T06:58:01.861Z,50.885319
2023-01-06T06:59:01.868Z,50.885040
2023-01-06T07:00:01.843Z,50.885437
2023-01-06T07:01:01.885Z,50.885563
2023-01-06T07:02:01.950Z,50.885479
2023-01-06T07:03:01.825Z,50.885441
2023-01-06T07:04:01.824Z,50.885586
2023-01-06T07:05:01.819Z,50.885273
2023-01-06T07:06:01.833Z,50.885288
2023-01-06T07:07:01.904Z,50.885185
2023-01-06T07:08:01.813Z,50.885105
2023-01-06T07:09:01.760Z,50.885284
2023-01-06T07:10:01.811Z,50.885326
2023-01-06T07:11:01.794Z,50.885284
2023-01-06T07:12:01.827Z,50.885494
2023-01-06T07:13:02.954Z,50.885395
2023-01-06T07:14:01.769Z,50.885147
2023-01-06T07:15:01.737Z,50.885422
2023-01-06T07:16:01.861Z,50.885406
2023-01-06T07:17:01.749Z,50.885387
2023-01-06T07:18:01.761Z,50.885361
2023-01-06T07:19:01.735Z,50.885193
2023-01-06T07:20:01.729Z,50.885437
2023-01-06T07:21:01.723Z,50.885422
2023-01-06T07:22:01.729Z,50.885235
2023-01-06T07:23:01.842Z,50.885281
2023-01-06T07:24:01.709Z,50.884933
2023-01-06T07:25:01.678Z,50.884888
2023-01-06T07:26:01.688Z,50.885082
2023-01-06T07:27:01.684Z,50.885368
2023-01-06T07:28:01.801Z,50.885162
2023-01-06T07:29:01.651Z,50.885242
2023-01-06T07:30:01.648Z,50.885384
2023-01-06T07:31:01.734Z,50.885372
2023-01-06T07:32:01.658Z,50.885384
2023-01-06T07:33:01.630Z,50.885288
2023-01-06T07:34:01.744Z,50.885429
2023-01-06T07:35:01.637Z,50.885460
2023-01-06T07:36:01.612Z,50.885365
2023-01-06T07:37:01.598Z,50.885284
2023-01-06T07:38:01.600Z,50.885181
2023-01-06T07:39:02.730Z,50.885319
2023-01-06T07:40:01.603Z,50.885410
2023-01-06T07:41:01.603Z,50.885406
2023-01-06T07:42:01.578Z,50.885326
2023-01-06T07:43:01.587Z,50.885345
2023-01-06T07:44:01.581Z,50.885479
2023-01-06T07:45:01.608Z,50.884808
2023-01-06T07:46:01.569Z,50.885281
2023-01-06T07:47:01.567Z,50.885571
2023-01-06T07:48:01.608Z,50.885681
2023-01-06T07:49:01.550Z,50.885590
2023-01-06T07:50:01.562Z,50.885391
2023-01-06T07:51:01.545Z,50.885422
2023-01-06T07:52:01.529Z,50.885574
2023-01-06T07:53:01.559Z,50.885765
2023-01-06T07:54:01.537Z,50.885120
2023-01-06T07:55:02.615Z,50.885109
2023-01-06T07:56:01.529Z,50.885136
2023-01-06T07:57:01.540Z,50.885174
2023-01-06T07:58:01.464Z,50.885159
2023-01-06T07:59:01.510Z,50.885120
2023-01-06T08:00:01.500Z,50.885059
2023-01-06T08:01:01.495Z,50.884949
2023-01-06T08:02:01.654Z,50.885082
2023-01-06T08:03:01.491Z,50.884899
2023-01-06T08:04:01.463Z,50.885078
2023-01-06T08:05:01.576Z,50.885250
2023-01-06T08:06:01.474Z,50.885368
2023-01-06T08:07:01.453Z,50.885262
2023-01-06T08:08:01.431Z,50.885078
2023-01-06T08:09:01.474Z,50.885281
2023-01-06T08:10:01.433Z,50.885445
2023-01-06T08:11:01.542Z,50.885475
2023-01-06T08:12:01.421Z,50.885391
2023-01-06T08:13:01.405Z,50.885437
2023-01-06T08:14:01.397Z,50.885437
2023-01-06T08:15:01.405Z,50.885437
2023-01-06T08:16:01.401Z,50.885437
2023-01-06T08:17:01.422Z,50.885437
2023-01-06T08:18:01.391Z,50.885437
2023-01-06T08:19:01.409Z,50.885437
2023-01-06T08:20:01.392Z,50.885571
2023-01-06T08:21:01.350Z,50.885593
2023-01-06T08:22:01.370Z,50.885571
2023-01-06T08:23:01.373Z,50.885532
2023-01-06T08:24:01.375Z,50.885578
2023-01-06T08:25:01.368Z,50.885593
2023-01-06T08:26:01.312Z,50.885593
2023-01-06T08:27:01.428Z,50.885609
2023-01-06T08:28:01.358Z,50.885654
2023-01-06T08:29:01.353Z,50.885601
2023-01-06T08:30:01.342Z,50.885612
2023-01-06T08:31:01.338Z,50.885551
2023-01-06T08:32:10.297Z,50.885628
2023-01-06T08:33:02.272Z,50.885632
2023-01-06T08:34:01.278Z,50.885654
2023-01-06T08:35:01.322Z,50.885757
2023-01-06T08:36:01.266Z,50.885731
2023-01-06T08:37:01.271Z,50.885643
2023-01-06T08:38:01.300Z,50.885612
2023-01-06T08:39:01.355Z,50.885628
2023-01-06T08:40:01.273Z,50.885750
2023-01-06T08:41:01.268Z,50.885735
2023-01-06T08:42:01.261Z,50.885590
2023-01-06T08:43:01.303Z,50.885612
2023-01-06T08:44:01.261Z,50.885551
2023-01-06T08:45:01.265Z,50.885609
2023-01-06T08:46:01.322Z,50.885567
2023-01-06T08:47:01.224Z,50.885658
2023-01-06T08:48:01.188Z,50.885654
2023-01-06T08:49:01.240Z,50.885563
2023-01-06T08:50:01.190Z,50.885456
2023-01-06T08:51:01.203Z,50.885487
2023-01-06T08:52:01.188Z,50.885563
2023-01-06T08:53:01.169Z,50.885551
2023-01-06T08:54:01.180Z,50.885517
2023-01-06T08:55:01.149Z,50.885708
2023-01-06T08:56:01.151Z,50.885651
2023-01-06T08:57:01.180Z,50.885540
2023-01-06T08:58:01.161Z,50.885498
2023-01-06T08:59:01.245Z,50.885597
2023-01-06T09:00:01.121Z,50.885647
2023-01-06T09:01:01.118Z,50.885712
2023-01-06T09:02:01.270Z,50.885540
2023-01-06T09:03:01.102Z,50.885777
2023-01-06T09:04:01.141Z,50.885456
2023-01-06T09:05:01.146Z,50.885605
2023-01-06T09:06:01.192Z,50.885815
2023-01-06T09:07:01.092Z,50.885635
2023-01-06T09:08:01.116Z,50.885708
2023-01-06T09:09:01.107Z,50.885632
2023-01-06T09:10:01.066Z,50.885738
2023-01-06T09:11:01.142Z,50.885639
2023-01-06T09:12:01.027Z,50.885693
2023-01-06T09:13:01.027Z,50.885757
2023-01-06T09:14:01.048Z,50.885784
2023-01-06T09:15:01.137Z,50.885513
2023-01-06T09:16:01.063Z,50.885658
